Flight Briefing for CPX793

Departure Arrival
Kingsford Smith International Airport (YSSY)
Click to view FAA NOTAMS
Auckland International Airport (NZAA)
Click to view FAA NOTAMS
Departure Time Arrival Time
N/A N/A
Aircraft Distance
B747-400BCF 1167nm
Departure METAR Arrival METAR
YSSY 250230Z 33007KT CAVOK 25/05 Q1017 NOSIG NZAA 250230Z AUTO 21004KT 9999 NCD 17/11 Q1023 NOSIG
Suggested Route
TESAT L521 LUNBI AA


View recent IFR Routes data
Notes



Charts and Procedures

Charts for YSSY
No chart available
Charts for NZAA
No chart available

Windy.com Weather Map